• Join FlightAware (Why Join?)
  • Login
  • US Flag GB Flag 
21:26 EDT


 

Airport Tracker/Info


-or-


 

Live Flight TrackerFlight Track Log ✈ AAY875 ✈ 06-Feb-2014 ✈ KBGR - KPIE

Flight Track Log - Related Links

Times and Time Zones

All times are in EST time to prevent confusion due to time zone crossing. See the AAY875 flight status page for this flight to view local times or setup timezone preferences in your user account.

Time Position Orientation Groundspeed Altitude Reporting Facility
EST Latitude Longitude Course Direction KTS MPH feet Rate Location/Type
12:03 44.8450 -68.8911 237° Southwest 193 222 3,000  Level Boston Center
12:04 44.8089 -68.9708 237° Southwest 250 288 5,700 2,880 Climbing Boston Center
12:05 44.7700 -69.0583 238° Southwest 258 297 9,000 2,640 Climbing Boston Center
12:06 44.7331 -69.1519 241° Southwest 267 307 11,200 2,040 Climbing Boston Center
12:07 44.6869 -69.2703 241° Southwest 330 380 13,200 2,280 Climbing Boston Center
12:08 44.6386 -69.3956 242° Southwest 352 405 15,900 2,580 Climbing Boston Center
12:09 44.5875 -69.5228 241° Southwest 367 422 18,500 2,460 Climbing Boston Center
12:10 44.5381 -69.6481 241° Southwest 363 418 21,000 2,220 Climbing Boston Center
12:11 44.4886 -69.7728 241° Southwest 362 417 23,100 2,340 Climbing Boston Center
12:12 44.4383 -69.8953 240° Southwest 359 413 25,900 2,160 Climbing Boston Center
12:13 44.3917 -70.0072 240° Southwest 337 388 27,600 1,380 Climbing Boston Center
12:15 44.3256 -70.1042 226° Southwest 343 395 28,800 1,140 Climbing Boston Center
12:16 44.2364 -70.2114 221° Southwest 350 403 30,000 540 Climbing Boston Center
12:17 44.1633 -70.3003 221° Southwest 346 398 30,000  Level Boston Center
12:18 44.0894 -70.3908 221° Southwest 350 403 30,000  Level Boston Center
12:19 44.0150 -70.4803 221° Southwest 354 407 30,000  Level Boston Center
12:20 43.9419 -70.5697 221° Southwest 351 404 30,000  Level Boston Center
12:21 43.8678 -70.6564 220° Southwest 345 397 30,000  Level Boston Center
12:22 43.7944 -70.7431 220° Southwest 346 398 30,000  Level Boston Center
12:23 43.7219 -70.8294 221° Southwest 340 391 30,000  Level Boston Center
12:24 43.6433 -70.9239 221° Southwest 348 400 30,000  Level Boston Center
12:25 43.5725 -71.0167 224° Southwest 351 404 30,000  Level Boston Center
12:26 43.4844 -71.1197 220° Southwest 347 399 30,000  Level Boston Center
12:27 43.4103 -71.2050 220° Southwest 347 399 30,000  Level Boston Center
12:28 43.3383 -71.2925 222° Southwest 346 398 30,000  Level Boston Center
12:29 43.2633 -71.3756 219° Southwest 345 397 30,000  Level Boston Center
12:30 43.1908 -71.4617 221° Southwest 345 397 30,000  Level Boston Center
12:31 43.1136 -71.5419 217° Southwest 346 398 30,000  Level Boston Center
12:32 43.0422 -71.6319 223° Southwest 349 402 30,000  Level Boston Center
12:33 42.9678 -71.7144 219° Southwest 346 398 30,000  Level Boston Center
12:34 42.8800 -71.8147 220° Southwest 344 396 30,000  Level Boston Center
12:35 42.8061 -71.8972 219° Southwest 344 396 30,000  Level Boston Center
12:36 42.7322 -71.9811 220° Southwest 347 399 30,000  Level Boston Center
12:37 42.6597 -72.0644 220° Southwest 343 395 30,000  Level Boston Center
12:38 42.5853 -72.1486 220° Southwest 347 399 30,000  Level Boston Center
12:39 42.5117 -72.2317 220° Southwest 346 398 30,000  Level Boston Center
12:40 42.4519 -72.2992 220° Southwest 342 394 30,000  Level Boston Center
12:41 42.3636 -72.3975 219° Southwest 343 395 30,000  Level Boston Center
12:42 42.2878 -72.4808 219° Southwest 350 403 30,000  Level Boston Center
12:43 42.2142 -72.5644 220° Southwest 348 400 30,000  Level Boston Center
12:44 42.1414 -72.6450 219° Southwest 339 390 30,000  Level Boston Center
12:45 42.0686 -72.7261 220° Southwest 339 390 30,000  Level Boston Center
12:46 41.9953 -72.8072 219° Southwest 338 389 30,000  Level Boston Center
12:47 41.9231 -72.8881 220° Southwest 338 389 30,000  Level Boston Center
12:48 41.8353 -72.9831 219° Southwest 338 389 30,000  Level Boston Center
12:49 41.7614 -73.0631 219° Southwest 339 390 30,000  Level Boston Center
12:50 41.6831 -73.1378 215° Southwest 344 396 30,000  Level Boston Center
12:51 41.6133 -73.2192 221° Southwest 337 388 30,000  Level Boston Center
12:52 41.5428 -73.3000 221° Southwest 334 384 30,000  Level Boston Center
12:53 41.4750 -73.3728 219° Southwest 335 386 30,000  Level Boston Center
12:54 41.3900 -73.4661 219° Southwest 332 382 30,000  Level Boston Center
12:55 41.3183 -73.5422 219° Southwest 331 381 30,000  Level Boston Center
12:57 41.2539 -73.6250 224° Southwest 323 372 30,000  Level Boston Center
12:57 41.2214 -73.6869 235° Southwest 330 380 30,000  Level New York Center
12:58 41.1669 -73.7781 232° Southwest 330 380 30,000  Level New York Center
12:59 41.1125 -73.8719 232° Southwest 325 374 30,000  Level New York Center
13:00 41.0561 -73.9631 231° Southwest 325 374 30,000  Level New York Center
13:01 41.0014 -74.0594 233° Southwest 325 374 30,000  Level New York Center
13:02 40.9444 -74.1528 231° Southwest 330 380 30,000  Level New York Center
13:03 40.8878 -74.2433 230° Southwest 330 380 30,000 -60 Level New York Center
13:04 40.8331 -74.3308 230° Southwest 324 373 29,900  Descending New York Center
13:05 40.7758 -74.4267 232° Southwest 324 373 30,000  Climbing New York Center
13:06 40.7211 -74.5142 230° Southwest 324 373 29,900  Descending New York Center
13:07 40.6661 -74.6067 232° Southwest 324 373 30,000  Climbing New York Center
13:08 40.6131 -74.6967 232° Southwest 324 373 30,000  Level New York Center
13:09 40.5558 -74.7836 229° Southwest 319 367 30,000  Level New York Center
13:10 40.4967 -74.8675 227° Southwest 324 373 30,000  Level New York Center
13:11 40.4375 -74.9511 227° Southwest 324 373 30,000 -60 Level New York Center
13:12 40.3761 -75.0347 226° Southwest 324 373 29,900  Descending New York Center
13:13 40.3167 -75.1208 228° Southwest 324 373 30,000  Climbing New York Center
13:14 40.2575 -75.2042 227° Southwest 324 373 30,000  Level New York Center
13:15 40.1981 -75.2872 227° Southwest 324 373 30,000 -60 Level New York Center
13:16 40.1364 -75.3731 227° Southwest 324 373 29,900  Descending New York Center
13:17 40.0767 -75.4558 227° Southwest 324 373 30,000  Climbing New York Center
13:19 39.9572 -75.6186 226° Southwest 320 368 30,000  Level Washington Center
13:20 39.8989 -75.7050 229° Southwest 320 368 30,000  Level Washington Center
13:21 39.8447 -75.7914 231° Southwest 315 362 30,000 -60 Level Washington Center
13:22 39.7903 -75.8806 232° Southwest 315 362 29,900 -60 Descending Washington Center
13:23 39.7358 -75.9667 231° Southwest 315 362 29,900  Level Washington Center
13:24 39.6814 -76.0553 231° Southwest 315 362 29,900  Level Washington Center
13:25 39.6228 -76.1439 229° Southwest 320 368 29,900  Level Washington Center
13:26 39.5681 -76.2322 231° Southwest 320 368 29,900  Level Washington Center
13:27 39.5136 -76.3178 230° Southwest 320 368 30,000  Climbing Washington Center
13:28 39.4589 -76.4033 230° Southwest 320 368 30,000 -60 Level Washington Center
13:29 39.4019 -76.4914 230° Southwest 320 368 29,900  Descending Washington Center
13:30 39.3428 -76.5792 229° Southwest 325 374 30,000  Climbing Washington Center
13:31 39.2881 -76.6614 229° Southwest 320 368 30,000  Level Washington Center
13:32 39.2308 -76.7517 231° Southwest 320 368 30,000  Level Washington Center
13:33 39.1736 -76.8392 230° Southwest 320 368 30,000  Level Washington Center
13:34 39.1208 -76.9239 231° Southwest 320 368 30,000  Level Washington Center
13:35 39.0633 -77.0111 230° Southwest 320 368 30,000  Level Washington Center
13:36 38.9978 -77.0872 222° Southwest 320 368 30,000  Level Washington Center
13:37 38.9281 -77.1633 220° Southwest 320 368 30,000  Level Washington Center
13:38 38.8625 -77.2367 221° Southwest 320 368 30,000  Level Washington Center
13:39 38.7947 -77.3097 220° Southwest 320 368 30,000  Level Washington Center
13:40 38.7250 -77.3853 220° Southwest 320 368 30,000  Level Washington Center
13:41 38.6656 -77.4528 222° Southwest 320 368 30,000  Level Washington Center
13:42 38.5933 -77.5281 219° Southwest 326 375 30,000  Level Washington Center
13:43 38.5256 -77.6006 220° Southwest 326 375 30,000  Level Washington Center
13:44 38.4575 -77.6756 221° Southwest 326 375 30,000  Level Washington Center
13:45 38.3917 -77.7506 222° Southwest 326 375 30,000  Level Washington Center
13:46 38.3214 -77.8228 219° Southwest 326 375 30,000  Level Washington Center
13:47 38.2553 -77.8975 222° Southwest 326 375 30,000  Level Washington Center
13:48 38.1853 -77.9692 219° Southwest 326 375 30,000  Level Washington Center
13:49 38.1192 -78.0411 221° Southwest 326 375 30,000  Level Washington Center
13:50 38.0508 -78.1153 221° Southwest 326 375 30,000  Level Washington Center
13:51 37.9847 -78.1869 221° Southwest 321 369 30,000  Level Washington Center
13:52 37.9122 -78.2528 216° Southwest 321 369 30,000  Level Washington Center
13:53 37.8397 -78.3239 218° Southwest 321 369 30,000  Level Washington Center
13:54 37.7672 -78.3922 217° Southwest 326 375 30,000  Level Washington Center
13:55 37.6947 -78.4603 217° Southwest 326 375 30,000  Level Washington Center
13:56 37.6178 -78.5333 217° Southwest 326 375 30,000  Level Washington Center
13:57 37.5472 -78.6014 217° Southwest 326 375 30,000  Level Washington Center
13:58 37.4747 -78.6692 217° Southwest 326 375 30,000  Level Washington Center
13:59 37.4019 -78.7369 217° Southwest 326 375 30,000  Level Washington Center
14:00 37.3272 -78.8044 216° Southwest 326 375 30,000  Level Washington Center
14:01 37.2631 -78.8644 217° Southwest 326 375 30,000  Level Washington Center
14:02 37.1903 -78.9317 216° Southwest 326 375 30,000  Level Washington Center
14:03 37.1153 -78.9986 215° Southwest 326 375 30,000  Level Washington Center
14:04 37.0425 -79.0656 216° Southwest 326 375 30,000  Level Washington Center
14:05 36.9694 -79.1353 217° Southwest 326 375 30,000  Level Washington Center
14:06 36.8967 -79.2019 216° Southwest 326 375 30,000  Level Washington Center
14:07 36.8172 -79.2761 217° Southwest 326 375 30,000  Level Washington Center
14:08 36.7419 -79.3450 216° Southwest 332 382 30,000  Level Washington Center
14:09 36.6689 -79.4114 216° Southwest 332 382 30,000  Level Washington Center
14:10 36.5981 -79.4778 217° Southwest 332 382 30,000  Level Washington Center
14:11 36.5228 -79.5439 215° Southwest 332 382 30,000  Level Washington Center
14:12 36.4581 -79.6053 217° Southwest 332 382 30,000  Level Washington Center
14:13 36.3850 -79.6675 214° Southwest 335 386 30,000  Level Atlanta Center
14:14 36.3125 -79.7358 217° Southwest 346 398 30,000  Level Atlanta Center
14:15 36.2375 -79.8017 215° Southwest 346 398 30,000  Level Atlanta Center
14:16 36.1647 -79.8672 216° Southwest 346 398 30,000  Level Atlanta Center
14:17 36.0919 -79.9353 217° Southwest 341 392 30,000  Level Atlanta Center
14:18 36.0206 -79.9875 211° Southwest 341 392 30,000  Level Atlanta Center
14:19 35.9303 -80.0331 202° Southwest 335 386 30,000  Level Atlanta Center
14:20 35.8422 -80.0783 203° Southwest 347 399 30,000  Level Atlanta Center
14:21 35.7517 -80.1236 202° Southwest 352 405 30,000  Level Atlanta Center
14:22 35.6533 -80.1769 204° Southwest 352 405 30,000  Level Atlanta Center
14:23 35.5631 -80.2222 202° Southwest 352 405 30,000  Level Atlanta Center
14:24 35.4706 -80.2672 202° Southwest 352 405 30,000  Level Atlanta Center
14:25 35.3819 -80.3069 200° South 358 412 30,000  Level Atlanta Center
14:26 35.2997 -80.3489 203° Southwest 353 406 30,000  Level Atlanta Center
14:27 35.2092 -80.3911 201° Southwest 353 406 30,000  Level Atlanta Center
14:29 34.9822 -80.5086 203° Southwest 353 406 30,000  Level Jacksonville Center
14:30 34.8933 -80.5539 203° Southwest 348 400 30,000  Level Jacksonville Center
14:31 34.7983 -80.6019 203° Southwest 348 400 30,000  Level Jacksonville Center
14:32 34.7072 -80.6475 202° Southwest 348 400 30,000 -60 Level Jacksonville Center
14:33 34.6142 -80.6903 201° Southwest 354 407 29,900  Descending Jacksonville Center
14:34 34.5272 -80.7353 203° Southwest 369 425 30,000  Climbing Jacksonville Center
14:35 34.4364 -80.7778 201° Southwest 369 425 30,000  Level Jacksonville Center
14:36 34.3411 -80.8278 203° Southwest 366 421 30,000  Level Jacksonville Center
14:37 34.2458 -80.8728 201° Southwest 366 421 30,000  Level Jacksonville Center
14:38 34.1528 -80.9153 201° Southwest 359 413 30,000  Level Jacksonville Center
14:39 34.0594 -80.9600 202° Southwest 359 413 30,000  Level Jacksonville Center
14:40 33.9725 -81.0019 202° Southwest 367 422 30,000  Level Jacksonville Center
14:41 33.8792 -81.0464 202° Southwest 367 422 30,000  Level Jacksonville Center
14:42 33.7839 -81.0908 201° Southwest 367 422 30,000 -60 Level Jacksonville Center
14:43 33.6886 -81.1353 201° Southwest 367 422 29,900  Descending Jacksonville Center
14:44 33.5931 -81.1797 201° Southwest 367 422 30,000  Climbing Jacksonville Center
14:45 33.4956 -81.2239 201° Southwest 367 422 29,900  Descending Jacksonville Center
14:46 33.4003 -81.2678 201° Southwest 367 422 30,000  Climbing Jacksonville Center
14:47 33.3028 -81.3119 201° Southwest 367 422 30,000 -60 Level Jacksonville Center
14:48 33.2092 -81.3558 201° Southwest 367 422 29,900  Descending Jacksonville Center
14:49 33.1139 -81.3994 201° Southwest 367 422 30,000  Climbing Jacksonville Center
14:50 33.0142 -81.4458 201° Southwest 367 422 29,900 -60 Descending Jacksonville Center
14:51 32.9167 -81.4894 201° Southwest 367 422 29,900  Level Jacksonville Center
14:52 32.8211 -81.5331 201° Southwest 367 422 30,000  Climbing Jacksonville Center
14:53 32.7233 -81.5764 200° South 372 428 29,900  Descending Jacksonville Center
14:54 32.6258 -81.6222 202° Southwest 372 428 30,000  Climbing Jacksonville Center
14:55 32.5175 -81.6706 201° Southwest 377 434 30,000  Level Jacksonville Center
14:56 32.4200 -81.7136 200° South 377 434 30,000  Level Jacksonville Center
14:57 32.3306 -81.7542 201° Southwest 384 442 30,000  Level Jacksonville Center
14:58 32.2161 -81.7900 195° South 391 450 30,000  Level Jacksonville Center
14:59 32.1181 -81.8108 190° South 399 459 30,000  Level Jacksonville Center
15:00 32.0014 -81.8342 190° South 394 453 30,000  Level Jacksonville Center
15:01 31.8931 -81.8600 191° South 394 453 30,000  Level Jacksonville Center
15:02 31.7972 -81.8806 190° South 394 453 30,000  Level Jacksonville Center
15:03 31.6783 -81.9064 190° South 394 453 30,000  Level Jacksonville Center
15:04 31.5678 -81.9319 191° South 399 459 30,000  Level Jacksonville Center
15:05 31.4678 -81.9547 191° South 404 465 30,000  Level Jacksonville Center
15:06 31.3447 -81.9828 191° South 412 474 30,000  Level Jacksonville Center
15:07 31.2344 -82.0106 192° South 406 467 30,000 -60 Level Jacksonville Center
15:08 31.1239 -82.0311 189° South 406 467 29,900  Descending Jacksonville Center
15:09 31.0153 -82.0539 190° South 406 467 30,000  Climbing Jacksonville Center
15:10 30.9050 -82.0767 190° South 406 467 29,900 -60 Descending Jacksonville Center
15:11 30.8028 -82.0992 191° South 412 474 29,900  Level Jacksonville Center
15:12 30.6922 -82.1244 191° South 407 468 29,900  Level Jacksonville Center
15:13 30.5817 -82.1469 190° South 407 468 30,000  Climbing Jacksonville Center
15:14 30.4692 -82.1672 189° South 407 468 30,000  Level Jacksonville Center
15:15 30.3586 -82.1919 191° South 407 468 30,000 -60 Level Jacksonville Center
15:16 30.2458 -82.2144 190° South 407 468 29,900  Descending Jacksonville Center
15:17 30.1333 -82.2392 191° South 407 468 30,000  Climbing Jacksonville Center
15:18 30.0206 -82.2642 191° South 407 468 30,000 -300 Level Jacksonville Center
15:19 29.9122 -82.2911 192° South 412 474 29,400 -960 Descending Jacksonville Center
15:20 29.8081 -82.3133 190° South 400 460 28,100 -1,380 Descending Jacksonville Center
15:21 29.7058 -82.3283 187° South 385 443 26,700 -1,080 Descending Jacksonville Center
15:22 29.6097 -82.3481 190° South 372 428 26,000 -420 Descending Jacksonville Center
15:23 29.5053 -82.3461 179° South 367 422 25,900 -1,200 Descending Jacksonville Center
15:24 29.4031 -82.3347 174° South 367 422 23,700 -1,980 Descending Jacksonville Center
15:25 29.3008 -82.3233 174° South 367 422 22,000 -1,800 Descending Jacksonville Center
15:26 29.1964 -82.3097 174° South 367 422 20,100 -1,860 Descending Jacksonville Center
15:27 29.1003 -82.3008 175° South 362 417 18,300 -1,680 Descending Jacksonville Center
15:28 29.0042 -82.2894 174° South 355 409 16,800 -1,620 Descending Jacksonville Center
15:29 28.9164 -82.2783 174° South 355 409 15,100 -1,140 Descending Jacksonville Center
15:32 28.7000 -82.2500 173° South 286 329 13,000 -1,020 Descending Tampa TRACON
15:33 28.6000 -82.2500 180° South 316 364 11,800 -1,440 Descending Tampa TRACON
15:34 28.5167 -82.2833 199° South 304 350 10,000 -900 Descending Tampa TRACON
15:35 28.5000 -82.3667 257° West 290 334 10,000  Level Tampa TRACON
15:36 28.4833 -82.4667 259° West 294 338 10,000 -180 Level Tampa TRACON
15:37 28.4833 -82.5333 270° West 289 333 9,700 -960 Descending Tampa TRACON
15:38 28.4667 -82.6167 257° West 267 307 8,300 -1,560 Descending Tampa TRACON
15:39 28.4333 -82.7000 246° West 258 297 6,600 -1,200 Descending Tampa TRACON
15:40 28.3833 -82.7667 230° Southwest 257 296 6,000 -300 Descending Tampa TRACON
15:41 28.3167 -82.8000 204° Southwest 257 296 6,000  Level Tampa TRACON
15:42 28.2500 -82.8000 180° South 255 293 6,000  Level Tampa TRACON
15:43 28.1667 -82.8167 190° South 255 293 6,000 -60 Level Tampa TRACON
15:44 28.1000 -82.8167 180° South 228 262 5,900 -420 Descending Tampa TRACON
15:45 28.0500 -82.8333 196° South 211 243 5,300 -480 Descending Tampa TRACON
15:46 28.0000 -82.8167 164° South 215 247 5,000 -540 Descending Tampa TRACON
15:47 27.9333 -82.8167 180° South 205 236 4,200 -600 Descending Tampa TRACON
15:48 27.8833 -82.8000 164° South 207 238 3,900 -660 Descending Tampa TRACON
15:49 27.8333 -82.7833 164° South 209 241 3,000 -960 Descending Tampa TRACON
15:50 27.7667 -82.7500 156° South 197 227 2,000 -540 Descending Tampa TRACON
15:51 27.7333 -82.7333 156° South 215 247 2,000  Level Tampa TRACON
15:52 27.7167 -82.6667 106° East 208 239 2,000 -60 Level Tampa TRACON
15:53 27.7667 -82.6667 360° North 169 194 1,900 -240 Descending Tampa TRACON
15:54 27.8167 -82.6667 360° North 156 180 1,500 -540 Descending Tampa TRACON
15:55 27.8667 -82.6833 344° North 142 163 900 -600 Descending Tampa TRACON